createdAt,value
2023-12-21T00:00:55.000Z,1010.67
2023-12-21T00:01:56.000Z,1010.71
2023-12-21T00:02:56.000Z,1010.57
2023-12-21T00:03:56.000Z,1010.55
2023-12-21T00:04:56.000Z,1010.6
2023-12-21T00:05:56.000Z,1010.54
2023-12-21T00:06:57.000Z,1010.55
2023-12-21T00:07:57.000Z,1010.58
2023-12-21T00:08:57.000Z,1010.43
2023-12-21T00:09:57.000Z,1010.5
2023-12-21T00:10:58.000Z,1010.28
2023-12-21T00:11:58.000Z,1010.43
2023-12-21T00:12:58.000Z,1010.47
2023-12-21T00:13:58.000Z,1010.36
2023-12-21T00:14:59.000Z,1010.41
2023-12-21T00:15:59.000Z,1010.38
2023-12-21T00:16:59.000Z,1010.37
2023-12-21T00:17:59.000Z,1010.36
2023-12-21T00:19:00.000Z,1010.26
2023-12-21T00:20:00.000Z,1010.27
2023-12-21T00:21:00.000Z,1010.19
2023-12-21T00:22:00.000Z,1010.13
2023-12-21T00:23:01.000Z,1010.1
2023-12-21T00:24:01.000Z,1010.06
2023-12-21T00:25:01.000Z,1010.13
2023-12-21T00:26:02.000Z,1010.16
2023-12-21T00:27:02.000Z,1010.19
2023-12-21T00:28:02.000Z,1010.12
2023-12-21T00:29:02.000Z,1010.1
2023-12-21T00:30:03.000Z,1010.1
2023-12-21T00:31:03.000Z,1010.13
2023-12-21T00:32:03.000Z,1010.0
2023-12-21T00:33:03.000Z,1010.08
2023-12-21T00:34:04.000Z,1010.04
2023-12-21T00:35:04.000Z,1009.94
2023-12-21T00:36:04.000Z,1010.02
2023-12-21T00:37:04.000Z,1009.92
2023-12-21T00:38:05.000Z,1009.9
2023-12-21T00:39:05.000Z,1009.85
2023-12-21T00:40:05.000Z,1009.78
2023-12-21T00:41:05.000Z,1009.74
2023-12-21T00:42:06.000Z,1009.79
2023-12-21T00:43:06.000Z,1009.84
2023-12-21T00:44:06.000Z,1009.79
2023-12-21T00:45:06.000Z,1009.69
2023-12-21T00:46:07.000Z,1009.78
2023-12-21T00:47:07.000Z,1009.79
2023-12-21T00:48:07.000Z,1009.8
2023-12-21T00:49:07.000Z,1009.76
2023-12-21T00:50:08.000Z,1009.69
2023-12-21T00:51:08.000Z,1009.67
2023-12-21T00:52:08.000Z,1009.65
2023-12-21T00:53:08.000Z,1009.62
2023-12-21T00:54:09.000Z,1009.74
2023-12-21T00:55:09.000Z,1009.67
2023-12-21T00:56:09.000Z,1009.61
2023-12-21T00:57:10.000Z,1009.64
2023-12-21T00:58:10.000Z,1009.64
2023-12-21T00:59:10.000Z,1009.68
2023-12-21T01:00:10.000Z,1009.72
2023-12-21T01:01:11.000Z,1009.6
2023-12-21T01:02:11.000Z,1009.61
2023-12-21T01:03:11.000Z,1009.55
2023-12-21T01:04:11.000Z,1009.57
2023-12-21T01:05:12.000Z,1009.58
2023-12-21T01:06:12.000Z,1009.54
2023-12-21T01:07:12.000Z,1009.53
2023-12-21T01:08:12.000Z,1009.5
2023-12-21T01:09:13.000Z,1009.49
2023-12-21T01:10:13.000Z,1009.46
2023-12-21T01:11:13.000Z,1009.55
2023-12-21T01:12:13.000Z,1009.51
2023-12-21T01:13:14.000Z,1009.5
2023-12-21T01:14:14.000Z,1009.53
2023-12-21T01:15:14.000Z,1009.52
2023-12-21T01:16:14.000Z,1009.6
2023-12-21T01:17:15.000Z,1009.57
2023-12-21T01:18:15.000Z,1009.58
2023-12-21T01:19:15.000Z,1009.52
2023-12-21T01:20:15.000Z,1009.58
2023-12-21T01:21:16.000Z,1009.4
2023-12-21T01:22:16.000Z,1009.48
2023-12-21T01:23:16.000Z,1009.36
2023-12-21T01:24:16.000Z,1009.36
2023-12-21T01:25:17.000Z,1009.37
2023-12-21T01:26:17.000Z,1009.34
2023-12-21T01:27:17.000Z,1009.32
2023-12-21T01:28:17.000Z,1009.31
2023-12-21T01:29:18.000Z,1009.24
2023-12-21T01:30:18.000Z,1009.29
2023-12-21T01:31:18.000Z,1009.32
2023-12-21T01:32:19.000Z,1009.4
2023-12-21T01:33:19.000Z,1009.32
2023-12-21T01:34:19.000Z,1009.28
2023-12-21T01:35:19.000Z,1009.35
2023-12-21T01:36:20.000Z,1009.33
2023-12-21T01:37:20.000Z,1009.35
2023-12-21T01:38:20.000Z,1009.29
2023-12-21T01:39:20.000Z,1009.23
2023-12-21T01:40:21.000Z,1009.28
2023-12-21T01:41:21.000Z,1009.25
2023-12-21T01:42:21.000Z,1009.22
2023-12-21T01:43:21.000Z,1009.05
2023-12-21T01:44:22.000Z,1009.23
2023-12-21T01:45:22.000Z,1009.21
2023-12-21T01:46:22.000Z,1009.22
2023-12-21T01:47:22.000Z,1009.2
2023-12-21T01:48:23.000Z,1009.24
2023-12-21T01:49:23.000Z,1009.1
2023-12-21T01:50:23.000Z,1009.08
2023-12-21T01:51:23.000Z,1009.07
2023-12-21T01:52:23.000Z,1009.11
2023-12-21T01:53:24.000Z,1009.11
2023-12-21T01:54:24.000Z,1009.05
2023-12-21T01:55:24.000Z,1009.02
2023-12-21T01:56:24.000Z,1009.04
2023-12-21T01:57:25.000Z,1008.96
2023-12-21T01:58:25.000Z,1008.99
2023-12-21T01:59:25.000Z,1009.04
2023-12-21T02:00:25.000Z,1008.94
2023-12-21T02:01:26.000Z,1008.85
2023-12-21T02:02:26.000Z,1008.88
2023-12-21T02:03:26.000Z,1008.79
2023-12-21T02:04:26.000Z,1008.83
2023-12-21T02:05:27.000Z,1008.87
2023-12-21T02:06:27.000Z,1008.79
2023-12-21T02:07:27.000Z,1008.8
2023-12-21T02:08:27.000Z,1008.81
2023-12-21T02:09:28.000Z,1008.73
2023-12-21T02:10:28.000Z,1008.79
2023-12-21T02:11:28.000Z,1008.79
2023-12-21T02:12:29.000Z,1008.78
2023-12-21T02:13:29.000Z,1008.77
2023-12-21T02:14:29.000Z,1008.66
2023-12-21T02:15:29.000Z,1008.62
2023-12-21T02:16:30.000Z,1008.66
2023-12-21T02:17:30.000Z,1008.62
2023-12-21T02:18:30.000Z,1008.59
2023-12-21T02:19:30.000Z,1008.52
2023-12-21T02:20:31.000Z,1008.53
2023-12-21T02:21:31.000Z,1008.47
2023-12-21T02:22:31.000Z,1008.53
2023-12-21T02:23:31.000Z,1008.58
2023-12-21T02:24:32.000Z,1008.56
2023-12-21T02:25:32.000Z,1008.64
2023-12-21T02:26:32.000Z,1008.6
2023-12-21T02:27:32.000Z,1008.67
2023-12-21T02:28:33.000Z,1008.6
2023-12-21T02:29:33.000Z,1008.68
2023-12-21T02:30:33.000Z,1008.68
2023-12-21T02:31:33.000Z,1008.58
2023-12-21T02:32:34.000Z,1008.56
2023-12-21T02:33:34.000Z,1008.52
2023-12-21T02:34:34.000Z,1008.48
2023-12-21T02:35:34.000Z,1008.5
2023-12-21T02:36:34.000Z,1008.49
2023-12-21T02:37:35.000Z,1008.52
2023-12-21T02:38:35.000Z,1008.54
2023-12-21T02:39:35.000Z,1008.47
2023-12-21T02:40:36.000Z,1008.34
2023-12-21T02:41:36.000Z,1008.42
2023-12-21T02:42:36.000Z,1008.31
2023-12-21T02:43:36.000Z,1008.27
2023-12-21T02:44:36.000Z,1008.28
2023-12-21T02:45:37.000Z,1008.21
2023-12-21T02:46:37.000Z,1008.19
2023-12-21T02:47:37.000Z,1008.24
2023-12-21T02:48:37.000Z,1008.11
2023-12-21T02:49:38.000Z,1008.09
2023-12-21T02:50:38.000Z,1008.06
2023-12-21T02:51:38.000Z,1008.01
2023-12-21T02:52:38.000Z,1007.98
2023-12-21T02:53:39.000Z,1007.88
2023-12-21T02:54:39.000Z,1007.84
2023-12-21T02:55:39.000Z,1007.85
2023-12-21T02:56:39.000Z,1007.96
2023-12-21T02:57:40.000Z,1007.93
2023-12-21T02:58:40.000Z,1007.91
2023-12-21T02:59:40.000Z,1007.89
2023-12-21T03:00:40.000Z,1007.92
2023-12-21T03:01:41.000Z,1007.77
2023-12-21T03:02:41.000Z,1007.73
2023-12-21T03:03:41.000Z,1007.73
2023-12-21T03:04:42.000Z,1007.69
2023-12-21T03:05:42.000Z,1007.69
2023-12-21T03:06:42.000Z,1007.75
2023-12-21T03:07:42.000Z,1007.74
2023-12-21T03:08:43.000Z,1007.69
2023-12-21T03:09:43.000Z,1007.61
2023-12-21T03:10:43.000Z,1007.69
2023-12-21T03:11:43.000Z,1007.68
2023-12-21T03:12:44.000Z,1007.69
2023-12-21T03:13:44.000Z,1007.72
2023-12-21T03:14:44.000Z,1007.64
2023-12-21T03:15:44.000Z,1007.62
2023-12-21T03:16:45.000Z,1007.64
2023-12-21T03:17:45.000Z,1007.55
2023-12-21T03:18:45.000Z,1007.6
2023-12-21T03:19:45.000Z,1007.59
2023-12-21T03:20:46.000Z,1007.53
2023-12-21T03:21:46.000Z,1007.51
2023-12-21T03:22:46.000Z,1007.51
2023-12-21T03:23:46.000Z,1007.46
2023-12-21T03:24:47.000Z,1007.6
2023-12-21T03:25:47.000Z,1007.47
2023-12-21T03:26:47.000Z,1007.5
2023-12-21T03:27:47.000Z,1007.51
2023-12-21T03:28:48.000Z,1007.48
2023-12-21T03:29:48.000Z,1007.41
2023-12-21T03:30:48.000Z,1007.4
2023-12-21T03:31:48.000Z,1007.37
2023-12-21T03:32:49.000Z,1007.35
2023-12-21T03:33:49.000Z,1007.23
2023-12-21T03:34:49.000Z,1007.24
2023-12-21T03:35:49.000Z,1007.27
2023-12-21T03:36:50.000Z,1007.32
2023-12-21T03:37:50.000Z,1007.3
2023-12-21T03:38:50.000Z,1007.28
2023-12-21T03:39:50.000Z,1007.22
2023-12-21T03:40:51.000Z,1007.17
2023-12-21T03:41:51.000Z,1007.02
2023-12-21T03:42:51.000Z,1007.01
2023-12-21T03:43:52.000Z,1006.92
2023-12-21T03:44:52.000Z,1006.96
2023-12-21T03:45:52.000Z,1006.98
2023-12-21T03:46:52.000Z,1006.92
2023-12-21T03:47:53.000Z,1006.96
2023-12-21T03:48:53.000Z,1006.98
2023-12-21T03:49:53.000Z,1006.94
2023-12-21T03:50:53.000Z,1006.93
2023-12-21T03:51:54.000Z,1006.96
2023-12-21T03:52:54.000Z,1007.01
2023-12-21T03:53:54.000Z,1006.97
2023-12-21T03:54:54.000Z,1006.96
2023-12-21T03:55:55.000Z,1006.91
2023-12-21T03:56:55.000Z,1006.97
2023-12-21T03:57:55.000Z,1006.86
2023-12-21T03:58:55.000Z,1006.95
2023-12-21T03:59:56.000Z,1006.88
2023-12-21T04:00:56.000Z,1006.83
2023-12-21T04:01:56.000Z,1006.83
2023-12-21T04:02:56.000Z,1006.78
2023-12-21T04:03:57.000Z,1006.76
2023-12-21T04:04:57.000Z,1006.75
2023-12-21T04:05:57.000Z,1006.65
2023-12-21T04:06:57.000Z,1006.71
2023-12-21T04:07:58.000Z,1006.69
2023-12-21T04:08:58.000Z,1006.69
2023-12-21T04:09:58.000Z,1006.7
2023-12-21T04:10:58.000Z,1006.71
2023-12-21T04:11:59.000Z,1006.63
2023-12-21T04:12:59.000Z,1006.72
2023-12-21T04:13:59.000Z,1006.75
2023-12-21T04:14:59.000Z,1006.7
2023-12-21T04:16:00.000Z,1006.68
2023-12-21T04:17:00.000Z,1006.63
2023-12-21T04:18:00.000Z,1006.7
2023-12-21T04:19:00.000Z,1006.44
2023-12-21T04:20:01.000Z,1006.7
2023-12-21T04:21:01.000Z,1006.68
2023-12-21T04:22:01.000Z,1006.62
2023-12-21T04:23:01.000Z,1006.66
2023-12-21T04:24:02.000Z,1006.78
2023-12-21T04:25:02.000Z,1006.76
2023-12-21T04:26:02.000Z,1006.71
2023-12-21T04:27:02.000Z,1006.75
2023-12-21T04:28:03.000Z,1006.73
2023-12-21T04:29:03.000Z,1006.67
2023-12-21T04:30:03.000Z,1006.65
2023-12-21T04:31:03.000Z,1006.59
2023-12-21T04:32:04.000Z,1006.61
2023-12-21T04:33:04.000Z,1006.57
2023-12-21T04:34:04.000Z,1006.55
2023-12-21T04:35:04.000Z,1006.6
2023-12-21T04:36:05.000Z,1006.55
2023-12-21T04:37:05.000Z,1006.57
2023-12-21T04:38:05.000Z,1006.48
2023-12-21T04:39:05.000Z,1006.45
2023-12-21T04:40:06.000Z,1006.46
2023-12-21T04:41:06.000Z,1006.39
2023-12-21T04:42:06.000Z,1006.4
2023-12-21T04:43:06.000Z,1006.37
2023-12-21T04:44:07.000Z,1006.3
2023-12-21T04:45:07.000Z,1006.29
2023-12-21T04:46:07.000Z,1006.29
2023-12-21T04:47:07.000Z,1006.22
2023-12-21T04:48:08.000Z,1006.21
2023-12-21T04:49:08.000Z,1006.18
2023-12-21T04:50:08.000Z,1006.18
2023-12-21T04:51:08.000Z,1006.17
2023-12-21T04:52:09.000Z,1006.15
2023-12-21T04:53:09.000Z,1006.1
2023-12-21T04:54:09.000Z,1006.16
2023-12-21T04:55:10.000Z,1006.19
2023-12-21T04:56:10.000Z,1006.15
2023-12-21T04:57:10.000Z,1006.19
2023-12-21T04:58:10.000Z,1006.21
2023-12-21T04:59:11.000Z,1006.24
2023-12-21T05:00:11.000Z,1006.13
2023-12-21T05:01:11.000Z,1006.19
2023-12-21T05:02:11.000Z,1006.18
2023-12-21T05:03:12.000Z,1006.17
2023-12-21T05:04:12.000Z,1006.14
2023-12-21T05:05:12.000Z,1006.18
2023-12-21T05:06:12.000Z,1006.2
2023-12-21T05:07:13.000Z,1006.21
2023-12-21T05:08:13.000Z,1006.27
2023-12-21T05:09:13.000Z,1006.07
2023-12-21T05:10:13.000Z,1006.15
2023-12-21T05:11:14.000Z,1006.13
2023-12-21T05:12:14.000Z,1006.09
2023-12-21T05:13:14.000Z,1006.11
2023-12-21T05:14:14.000Z,1005.95
2023-12-21T05:15:15.000Z,1006.06
2023-12-21T05:16:15.000Z,1006.09
2023-12-21T05:17:15.000Z,1006.11
2023-12-21T05:18:15.000Z,1006.1
2023-12-21T05:19:15.000Z,1006.15
2023-12-21T05:20:16.000Z,1006.09
2023-12-21T05:21:16.000Z,1006.02
2023-12-21T05:22:16.000Z,1006.02
2023-12-21T05:23:16.000Z,1006.04
2023-12-21T05:24:17.000Z,1006.06
2023-12-21T05:25:17.000Z,1005.99
2023-12-21T05:26:17.000Z,1005.84
2023-12-21T05:27:18.000Z,1005.98
2023-12-21T05:28:18.000Z,1005.97
2023-12-21T05:29:18.000Z,1005.9
2023-12-21T05:30:18.000Z,1005.92
2023-12-21T05:31:19.000Z,1005.86
2023-12-21T05:32:19.000Z,1005.89
2023-12-21T05:33:19.000Z,1005.85
2023-12-21T05:34:19.000Z,1005.82
2023-12-21T05:35:20.000Z,1005.89
2023-12-21T05:36:20.000Z,1005.85
2023-12-21T05:37:20.000Z,1005.76
2023-12-21T05:38:20.000Z,1005.79
2023-12-21T05:39:20.000Z,1005.75
2023-12-21T05:40:21.000Z,1005.84
2023-12-21T05:41:21.000Z,1005.79
2023-12-21T05:42:21.000Z,1005.86
2023-12-21T05:43:21.000Z,1005.85
2023-12-21T05:44:22.000Z,1005.89
2023-12-21T05:45:22.000Z,1005.82
2023-12-21T05:46:22.000Z,1005.79
2023-12-21T05:47:23.000Z,1005.77
2023-12-21T05:48:23.000Z,1005.81
2023-12-21T05:49:23.000Z,1005.79
2023-12-21T05:50:23.000Z,1005.79
2023-12-21T05:51:24.000Z,1005.74
2023-12-21T05:52:24.000Z,1005.69
2023-12-21T05:53:24.000Z,1005.73
2023-12-21T05:54:24.000Z,1005.73
2023-12-21T05:55:25.000Z,1005.73
2023-12-21T05:56:25.000Z,1005.68
2023-12-21T05:57:25.000Z,1005.64
2023-12-21T05:58:25.000Z,1005.68
2023-12-21T05:59:26.000Z,1005.63
2023-12-21T06:00:26.000Z,1005.63
2023-12-21T06:01:26.000Z,1005.59
2023-12-21T06:02:27.000Z,1005.6
2023-12-21T06:03:27.000Z,1005.6
2023-12-21T06:04:27.000Z,1005.64
2023-12-21T06:05:27.000Z,1005.61
2023-12-21T06:06:28.000Z,1005.63
2023-12-21T06:07:28.000Z,1005.51
2023-12-21T06:08:28.000Z,1005.56
2023-12-21T06:09:28.000Z,1005.53
2023-12-21T06:10:29.000Z,1005.53
2023-12-21T06:11:29.000Z,1005.59
2023-12-21T06:12:29.000Z,1005.51
2023-12-21T06:13:29.000Z,1005.58
2023-12-21T06:14:30.000Z,1005.58
2023-12-21T06:15:30.000Z,1005.6
2023-12-21T06:16:30.000Z,1005.55
2023-12-21T06:17:30.000Z,1005.57
2023-12-21T06:18:31.000Z,1005.57
2023-12-21T06:19:31.000Z,1005.59
2023-12-21T06:20:31.000Z,1005.56
2023-12-21T06:21:31.000Z,1005.57
2023-12-21T06:22:32.000Z,1005.53
2023-12-21T06:23:32.000Z,1005.59
2023-12-21T06:24:32.000Z,1005.58
2023-12-21T06:25:32.000Z,1005.55
2023-12-21T06:26:33.000Z,1005.53
2023-12-21T06:27:33.000Z,1005.47
2023-12-21T06:28:33.000Z,1005.4
2023-12-21T06:29:33.000Z,1005.42
2023-12-21T06:30:34.000Z,1005.39
2023-12-21T06:31:34.000Z,1005.37
2023-12-21T06:32:34.000Z,1005.31
2023-12-21T06:33:34.000Z,1005.29
2023-12-21T06:34:35.000Z,1005.23
2023-12-21T06:35:35.000Z,1005.23
2023-12-21T06:36:35.000Z,1005.21
2023-12-21T06:37:35.000Z,1005.19
2023-12-21T06:38:36.000Z,1005.1
2023-12-21T06:39:36.000Z,1005.13
2023-12-21T06:40:36.000Z,1005.16
2023-12-21T06:41:36.000Z,1005.17
2023-12-21T06:42:37.000Z,1005.11
2023-12-21T06:43:37.000Z,1005.13
2023-12-21T06:44:37.000Z,1005.09
2023-12-21T06:45:37.000Z,1005.09
2023-12-21T06:46:38.000Z,1005.07
2023-12-21T06:47:38.000Z,1005.06
2023-12-21T06:48:38.000Z,1005.0
2023-12-21T06:49:38.000Z,1004.96
2023-12-21T06:50:39.000Z,1004.89
2023-12-21T06:51:39.000Z,1004.98
2023-12-21T06:52:39.000Z,1004.93
2023-12-21T06:53:39.000Z,1004.91
2023-12-21T06:54:40.000Z,1004.95
2023-12-21T06:55:40.000Z,1004.96
2023-12-21T06:56:40.000Z,1004.91
2023-12-21T06:57:40.000Z,1004.89
2023-12-21T06:58:41.000Z,1004.98
2023-12-21T06:59:41.000Z,1004.91
2023-12-21T07:00:41.000Z,1004.97
2023-12-21T07:01:41.000Z,1004.95
2023-12-21T07:02:42.000Z,1005.0
2023-12-21T07:03:42.000Z,1004.8
2023-12-21T07:04:42.000Z,1004.86
2023-12-21T07:05:42.000Z,1004.85
2023-12-21T07:06:43.000Z,1004.77
2023-12-21T07:07:43.000Z,1004.86
2023-12-21T07:08:43.000Z,1004.8
2023-12-21T07:09:43.000Z,1004.84
2023-12-21T07:10:44.000Z,1004.78
2023-12-21T07:11:44.000Z,1004.69
2023-12-21T07:12:44.000Z,1004.75
2023-12-21T07:13:44.000Z,1004.67
2023-12-21T07:14:45.000Z,1004.66
2023-12-21T07:15:45.000Z,1004.63
2023-12-21T07:16:45.000Z,1004.58
2023-12-21T07:17:45.000Z,1004.56
2023-12-21T07:18:46.000Z,1004.47
2023-12-21T07:19:46.000Z,1004.5
2023-12-21T07:20:46.000Z,1004.52
2023-12-21T07:21:46.000Z,1004.49
2023-12-21T07:22:47.000Z,1004.46
2023-12-21T07:23:47.000Z,1004.46
2023-12-21T07:24:47.000Z,1004.43
2023-12-21T07:25:47.000Z,1004.35
2023-12-21T07:26:48.000Z,1004.37
2023-12-21T07:27:48.000Z,1004.38
2023-12-21T07:28:48.000Z,1004.31
2023-12-21T07:29:48.000Z,1004.26
2023-12-21T07:30:49.000Z,1004.25
2023-12-21T07:31:49.000Z,1004.22
2023-12-21T07:32:49.000Z,1004.19
2023-12-21T07:33:50.000Z,1004.02
2023-12-21T07:34:50.000Z,1004.06
2023-12-21T07:35:50.000Z,1004.07
2023-12-21T07:36:50.000Z,1004.01
2023-12-21T07:37:51.000Z,1003.9
2023-12-21T07:38:51.000Z,1003.95
2023-12-21T07:39:51.000Z,1003.86
2023-12-21T07:40:51.000Z,1003.91
2023-12-21T07:41:52.000Z,1003.95
2023-12-21T07:42:52.000Z,1003.98
2023-12-21T07:43:52.000Z,1003.93
2023-12-21T07:44:52.000Z,1003.91
2023-12-21T07:45:53.000Z,1003.9
2023-12-21T07:46:53.000Z,1003.86
2023-12-21T07:47:53.000Z,1003.86
2023-12-21T07:48:53.000Z,1003.83
2023-12-21T07:49:54.000Z,1003.83
2023-12-21T07:50:54.000Z,1003.77
2023-12-21T07:51:54.000Z,1003.77
2023-12-21T07:52:54.000Z,1003.78
2023-12-21T07:53:55.000Z,1003.71
2023-12-21T07:54:55.000Z,1003.72
2023-12-21T07:55:55.000Z,1003.64
2023-12-21T07:56:55.000Z,1003.64
2023-12-21T07:57:56.000Z,1003.51
2023-12-21T07:58:56.000Z,1003.51
2023-12-21T07:59:56.000Z,1003.34
2023-12-21T08:00:56.000Z,1003.43
2023-12-21T08:01:57.000Z,1003.43
2023-12-21T08:02:57.000Z,1003.43
2023-12-21T08:03:57.000Z,1003.43
2023-12-21T08:04:57.000Z,1003.39
2023-12-21T08:05:58.000Z,1003.29
2023-12-21T08:06:58.000Z,1003.3
2023-12-21T08:07:58.000Z,1003.3
2023-12-21T08:08:58.000Z,1003.33
2023-12-21T08:09:59.000Z,1003.24
2023-12-21T08:10:59.000Z,1003.27
2023-12-21T08:11:59.000Z,1003.27
2023-12-21T08:12:59.000Z,1003.23
2023-12-21T08:14:00.000Z,1003.13
2023-12-21T08:15:00.000Z,1003.15
2023-12-21T08:16:00.000Z,1002.96
2023-12-21T08:17:00.000Z,1003.07
2023-12-21T08:18:01.000Z,1003.05
2023-12-21T08:19:01.000Z,1003.0
2023-12-21T08:20:01.000Z,1003.0
2023-12-21T08:21:01.000Z,1002.89
2023-12-21T08:22:02.000Z,1002.88
2023-12-21T08:23:02.000Z,1002.79
2023-12-21T08:24:02.000Z,1002.79
2023-12-21T08:25:02.000Z,1002.64
2023-12-21T08:26:03.000Z,1002.72
2023-12-21T08:27:03.000Z,1002.67
2023-12-21T08:28:03.000Z,1002.59
2023-12-21T08:29:03.000Z,1002.61
2023-12-21T08:30:04.000Z,1002.57
2023-12-21T08:31:04.000Z,1002.5
2023-12-21T08:32:04.000Z,1002.45
2023-12-21T08:33:05.000Z,1002.44
2023-12-21T08:34:05.000Z,1002.4
2023-12-21T08:35:05.000Z,1002.28
2023-12-21T08:36:05.000Z,1002.16
2023-12-21T08:37:06.000Z,1002.16
2023-12-21T08:38:06.000Z,1002.04
2023-12-21T08:39:06.000Z,1001.99
2023-12-21T08:40:07.000Z,1001.96
2023-12-21T08:41:07.000Z,1001.96
2023-12-21T08:42:07.000Z,1001.94
2023-12-21T08:43:07.000Z,1001.87
2023-12-21T08:44:08.000Z,1001.82
2023-12-21T08:45:08.000Z,1001.75
2023-12-21T08:46:08.000Z,1001.7
2023-12-21T08:47:08.000Z,1001.6
2023-12-21T08:48:09.000Z,1001.59
2023-12-21T08:49:09.000Z,1001.56
2023-12-21T08:50:09.000Z,1001.5
2023-12-21T08:51:09.000Z,1001.56
2023-12-21T08:52:10.000Z,1001.41
2023-12-21T08:53:10.000Z,1001.36
2023-12-21T08:54:10.000Z,1001.39
2023-12-21T08:55:10.000Z,1001.36
2023-12-21T08:56:11.000Z,1001.18
2023-12-21T08:57:11.000Z,1001.27
2023-12-21T08:58:11.000Z,1001.18
2023-12-21T08:59:11.000Z,1001.23
2023-12-21T09:00:12.000Z,1001.21
2023-12-21T09:01:12.000Z,1001.22
2023-12-21T09:02:12.000Z,1001.19
2023-12-21T09:03:12.000Z,1001.15
2023-12-21T09:04:13.000Z,1001.03
2023-12-21T09:05:13.000Z,1001.07
2023-12-21T09:06:13.000Z,1001.13
2023-12-21T09:07:13.000Z,1001.07
2023-12-21T09:08:14.000Z,1001.05
2023-12-21T09:09:14.000Z,1001.04
2023-12-21T09:10:14.000Z,1000.91
2023-12-21T09:11:14.000Z,1000.92
2023-12-21T09:12:15.000Z,1000.85
2023-12-21T09:13:15.000Z,1000.85
2023-12-21T09:14:15.000Z,1000.77
2023-12-21T09:15:16.000Z,1000.8
2023-12-21T09:16:16.000Z,1000.82
2023-12-21T09:17:16.000Z,1000.71
2023-12-21T09:18:16.000Z,1000.69
2023-12-21T09:19:17.000Z,1000.58
2023-12-21T09:20:17.000Z,1000.52
2023-12-21T09:21:17.000Z,1000.58
2023-12-21T09:22:17.000Z,1000.37
2023-12-21T09:23:18.000Z,1000.27
2023-12-21T09:24:18.000Z,1000.4
2023-12-21T09:25:18.000Z,1000.38
2023-12-21T09:26:19.000Z,1000.34
2023-12-21T09:27:19.000Z,1000.24
2023-12-21T09:28:19.000Z,1000.24
2023-12-21T09:29:19.000Z,1000.25
2023-12-21T09:30:20.000Z,1000.18
2023-12-21T09:31:20.000Z,1000.12
2023-12-21T09:32:20.000Z,1000.09
2023-12-21T09:33:20.000Z,1000.16
2023-12-21T09:34:21.000Z,1000.19
2023-12-21T09:35:21.000Z,1000.12
2023-12-21T09:36:21.000Z,999.99
2023-12-21T09:37:21.000Z,1000.01
2023-12-21T09:38:22.000Z,999.92
2023-12-21T09:39:22.000Z,999.89
2023-12-21T09:40:22.000Z,999.79
2023-12-21T09:41:22.000Z,999.85
2023-12-21T09:42:23.000Z,999.65
2023-12-21T09:43:23.000Z,999.59
2023-12-21T09:44:23.000Z,999.42
2023-12-21T09:45:23.000Z,999.26
2023-12-21T09:46:24.000Z,999.24
2023-12-21T09:47:24.000Z,999.19
2023-12-21T09:48:24.000Z,999.23
2023-12-21T09:49:24.000Z,999.19
2023-12-21T09:50:25.000Z,999.18
2023-12-21T09:51:25.000Z,999.12
2023-12-21T09:52:25.000Z,999.03
2023-12-21T09:53:25.000Z,999.09
2023-12-21T09:54:26.000Z,998.99
2023-12-21T09:55:26.000Z,999.04
2023-12-21T09:56:26.000Z,998.94
2023-12-21T09:57:26.000Z,999.11
2023-12-21T09:58:27.000Z,999.0
2023-12-21T09:59:27.000Z,999.06
2023-12-21T10:00:27.000Z,999.09
2023-12-21T10:01:28.000Z,999.03
2023-12-21T10:02:28.000Z,999.11
2023-12-21T10:03:28.000Z,998.99
2023-12-21T10:04:28.000Z,999.09
2023-12-21T10:05:29.000Z,999.15
2023-12-21T10:06:29.000Z,999.02
2023-12-21T10:07:29.000Z,998.86
2023-12-21T10:08:29.000Z,999.01
2023-12-21T10:09:30.000Z,998.99
2023-12-21T10:10:30.000Z,998.98
2023-12-21T10:11:30.000Z,998.9
2023-12-21T10:12:30.000Z,998.97
2023-12-21T10:13:31.000Z,998.9
2023-12-21T10:14:31.000Z,998.81
2023-12-21T10:15:31.000Z,998.96
2023-12-21T10:16:31.000Z,999.03
2023-12-21T10:17:32.000Z,998.9
2023-12-21T10:18:32.000Z,998.99
2023-12-21T10:19:32.000Z,998.92
2023-12-21T10:20:32.000Z,998.86
2023-12-21T10:21:33.000Z,998.92
2023-12-21T10:22:33.000Z,998.94
2023-12-21T10:23:33.000Z,998.86
2023-12-21T10:24:33.000Z,998.9
2023-12-21T10:25:34.000Z,998.77
2023-12-21T10:26:34.000Z,998.81
2023-12-21T10:27:34.000Z,998.63
2023-12-21T10:28:34.000Z,998.72
2023-12-21T10:29:35.000Z,998.54
2023-12-21T10:30:35.000Z,998.55
2023-12-21T10:31:35.000Z,998.46
2023-12-21T10:32:35.000Z,998.54
2023-12-21T10:33:36.000Z,998.54
2023-12-21T10:34:36.000Z,998.37
2023-12-21T10:35:36.000Z,998.18
2023-12-21T10:36:36.000Z,998.28
2023-12-21T10:37:37.000Z,998.22
2023-12-21T10:38:37.000Z,998.14
2023-12-21T10:39:37.000Z,998.07
2023-12-21T10:40:37.000Z,998.06
2023-12-21T10:41:38.000Z,998.11
2023-12-21T10:42:38.000Z,997.97
2023-12-21T10:43:38.000Z,997.94
2023-12-21T10:44:38.000Z,997.95
2023-12-21T10:45:39.000Z,997.89
2023-12-21T10:46:39.000Z,997.9
2023-12-21T10:47:39.000Z,997.78
2023-12-21T10:48:39.000Z,997.88
2023-12-21T10:49:40.000Z,997.83
2023-12-21T10:50:40.000Z,997.9
2023-12-21T10:51:40.000Z,997.76
2023-12-21T10:52:40.000Z,997.86
2023-12-21T10:53:41.000Z,997.78
2023-12-21T10:54:41.000Z,997.75
2023-12-21T10:55:41.000Z,997.81
2023-12-21T10:56:41.000Z,997.72
2023-12-21T10:57:42.000Z,997.73
2023-12-21T10:58:42.000Z,997.72
2023-12-21T10:59:42.000Z,997.77
2023-12-21T11:00:42.000Z,997.71
2023-12-21T11:01:43.000Z,997.64
2023-12-21T11:02:43.000Z,997.6
2023-12-21T11:03:43.000Z,997.55
2023-12-21T11:04:43.000Z,997.5
2023-12-21T11:05:44.000Z,997.53
2023-12-21T11:06:44.000Z,997.41
2023-12-21T11:07:44.000Z,997.45
2023-12-21T11:08:44.000Z,997.46
2023-12-21T11:09:45.000Z,997.36
2023-12-21T11:10:45.000Z,997.24
2023-12-21T11:11:45.000Z,997.44
2023-12-21T11:12:45.000Z,997.38
2023-12-21T11:13:46.000Z,997.39
2023-12-21T11:14:46.000Z,997.34
2023-12-21T11:15:46.000Z,997.27
2023-12-21T11:16:46.000Z,997.28
2023-12-21T11:17:47.000Z,997.19
2023-12-21T11:18:47.000Z,997.13
2023-12-21T11:19:47.000Z,997.21
2023-12-21T11:20:47.000Z,997.18
2023-12-21T11:21:48.000Z,997.15
2023-12-21T11:22:48.000Z,997.1
2023-12-21T11:23:48.000Z,997.09
2023-12-21T11:24:49.000Z,997.07
2023-12-21T11:25:49.000Z,997.12
2023-12-21T11:26:49.000Z,997.05
2023-12-21T11:27:49.000Z,996.95
2023-12-21T11:28:50.000Z,996.89
2023-12-21T11:29:50.000Z,996.88
2023-12-21T11:30:50.000Z,996.87
2023-12-21T11:31:50.000Z,996.75
2023-12-21T11:32:51.000Z,996.82
2023-12-21T11:33:51.000Z,996.77
2023-12-21T11:34:51.000Z,996.67
2023-12-21T11:35:51.000Z,996.64
2023-12-21T11:36:52.000Z,996.63
2023-12-21T11:37:52.000Z,996.61
2023-12-21T11:38:52.000Z,996.6
2023-12-21T11:39:52.000Z,996.5
2023-12-21T11:40:53.000Z,996.58
2023-12-21T11:41:53.000Z,996.47
2023-12-21T11:42:53.000Z,996.41
2023-12-21T11:43:53.000Z,996.36
2023-12-21T11:44:54.000Z,996.37
2023-12-21T11:45:54.000Z,996.43
2023-12-21T11:46:54.000Z,996.21
2023-12-21T11:47:54.000Z,996.25
2023-12-21T11:48:55.000Z,996.24
2023-12-21T11:49:55.000Z,996.16
2023-12-21T11:50:55.000Z,996.08
2023-12-21T11:51:55.000Z,996.04
2023-12-21T11:52:56.000Z,996.14
2023-12-21T11:53:56.000Z,996.06
2023-12-21T11:54:56.000Z,996.05
2023-12-21T11:55:56.000Z,996.01
2023-12-21T11:56:57.000Z,995.95
2023-12-21T11:57:57.000Z,995.88
2023-12-21T11:58:57.000Z,995.86
2023-12-21T11:59:57.000Z,995.98
2023-12-21T12:00:58.000Z,995.91
2023-12-21T12:01:58.000Z,995.86
2023-12-21T12:02:58.000Z,995.77
2023-12-21T12:03:58.000Z,995.79
2023-12-21T12:04:59.000Z,995.72
2023-12-21T12:05:59.000Z,995.64
2023-12-21T12:06:59.000Z,995.65
2023-12-21T12:08:00.000Z,995.65
2023-12-21T12:09:00.000Z,995.6
2023-12-21T12:10:00.000Z,995.55
2023-12-21T12:11:00.000Z,995.5
2023-12-21T12:12:01.000Z,995.52
2023-12-21T12:13:01.000Z,995.58
2023-12-21T12:14:01.000Z,995.53
2023-12-21T12:15:01.000Z,995.43
2023-12-21T12:16:02.000Z,995.45